sensor_id;sensor_type;location;lat;lon;timestamp;temperature;humidity
72128;DHT22;60000;51.030;7.024;2022-09-09T00:02:23;16.67;82.46
72128;DHT22;60000;51.030;7.024;2022-09-09T00:07:51;16.69;82.38
72128;DHT22;60000;51.030;7.024;2022-09-09T00:10:22;16.69;82.44
72128;DHT22;60000;51.030;7.024;2022-09-09T00:13:00;16.67;82.33
72128;DHT22;60000;51.030;7.024;2022-09-09T00:18:46;16.66;82.32
72128;DHT22;60000;51.030;7.024;2022-09-09T00:21:16;16.67;82.23
72128;DHT22;60000;51.030;7.024;2022-09-09T00:23:54;16.64;82.48
72128;DHT22;60000;51.030;7.024;2022-09-09T00:26:30;16.59;82.66
72128;DHT22;60000;51.030;7.024;2022-09-09T00:31:37;16.53;82.83
72128;DHT22;60000;51.030;7.024;2022-09-09T00:34:11;16.53;83.12
72128;DHT22;60000;51.030;7.024;2022-09-09T00:36:38;16.50;83.15
72128;DHT22;60000;51.030;7.024;2022-09-09T00:39:04;16.48;83.26
72128;DHT22;60000;51.030;7.024;2022-09-09T00:57:29;16.42;83.79
72128;DHT22;60000;51.030;7.024;2022-09-09T01:03:39;16.36;83.85
72128;DHT22;60000;51.030;7.024;2022-09-09T01:05:46;16.38;83.91
72128;DHT22;60000;51.030;7.024;2022-09-09T01:11:01;16.36;83.68
72128;DHT22;60000;51.030;7.024;2022-09-09T01:13:33;16.33;83.71
72128;DHT22;60000;51.030;7.024;2022-09-09T01:16:01;16.32;83.49
72128;DHT22;60000;51.030;7.024;2022-09-09T01:18:31;16.30;83.45
72128;DHT22;60000;51.030;7.024;2022-09-09T01:23:58;16.28;83.02
72128;DHT22;60000;51.030;7.024;2022-09-09T01:26:34;16.28;82.94
72128;DHT22;60000;51.030;7.024;2022-09-09T01:29:00;16.29;82.69
72128;DHT22;60000;51.030;7.024;2022-09-09T01:31:41;16.28;82.57
72128;DHT22;60000;51.030;7.024;2022-09-09T01:34:16;16.26;82.47
72128;DHT22;60000;51.030;7.024;2022-09-09T01:36:46;16.28;82.37
72128;DHT22;60000;51.030;7.024;2022-09-09T01:39:16;16.22;82.42
72128;DHT22;60000;51.030;7.024;2022-09-09T01:41:42;16.23;82.48
72128;DHT22;60000;51.030;7.024;2022-09-09T01:44:08;16.21;82.51
72128;DHT22;60000;51.030;7.024;2022-09-09T01:46:33;16.18;82.52
72128;DHT22;60000;51.030;7.024;2022-09-09T01:49:00;16.18;82.77
72128;DHT22;60000;51.030;7.024;2022-09-09T01:51:27;16.12;82.96
72128;DHT22;60000;51.030;7.024;2022-09-09T01:53:52;16.09;83.20
72128;DHT22;60000;51.030;7.024;2022-09-09T01:59:14;16.06;83.46
72128;DHT22;60000;51.030;7.024;2022-09-09T02:04:44;16.08;83.48
72128;DHT22;60000;51.030;7.024;2022-09-09T02:10:21;16.08;83.61
72128;DHT22;60000;51.030;7.024;2022-09-09T02:13:02;16.11;83.53
72128;DHT22;60000;51.030;7.024;2022-09-09T02:18:07;16.16;83.32
72128;DHT22;60000;51.030;7.024;2022-09-09T02:20:35;16.19;83.16
72128;DHT22;60000;51.030;7.024;2022-09-09T02:23:03;16.16;83.14
72128;DHT22;60000;51.030;7.024;2022-09-09T02:25:29;16.18;83.15
72128;DHT22;60000;51.030;7.024;2022-09-09T02:27:56;16.21;83.09
72128;DHT22;60000;51.030;7.024;2022-09-09T02:30:24;16.18;83.02
72128;DHT22;60000;51.030;7.024;2022-09-09T02:32:52;16.18;82.97
72128;DHT22;60000;51.030;7.024;2022-09-09T02:35:23;16.19;82.96
72128;DHT22;60000;51.030;7.024;2022-09-09T02:37:51;16.19;82.91
72128;DHT22;60000;51.030;7.024;2022-09-09T02:40:18;16.19;82.94
72128;DHT22;60000;51.030;7.024;2022-09-09T02:42:45;16.21;82.87
72128;DHT22;60000;51.030;7.024;2022-09-09T02:45:14;16.21;82.87
72128;DHT22;60000;51.030;7.024;2022-09-09T02:51:08;16.18;82.90
72128;DHT22;60000;51.030;7.024;2022-09-09T02:53:59;16.19;82.91
72128;DHT22;60000;51.030;7.024;2022-09-09T02:56:31;16.19;83.01
72128;DHT22;60000;51.030;7.024;2022-09-09T02:58:58;16.21;82.99
72128;DHT22;60000;51.030;7.024;2022-09-09T03:01:24;16.19;83.00
72128;DHT22;60000;51.030;7.024;2022-09-09T03:03:49;16.16;83.00
72128;DHT22;60000;51.030;7.024;2022-09-09T03:06:15;16.16;83.06
72128;DHT22;60000;51.030;7.024;2022-09-09T03:08:40;16.16;83.01
72128;DHT22;60000;51.030;7.024;2022-09-09T03:11:10;16.19;82.94
72128;DHT22;60000;51.030;7.024;2022-09-09T03:13:36;16.15;83.00
72128;DHT22;60000;51.030;7.024;2022-09-09T03:16:02;16.16;83.02
72128;DHT22;60000;51.030;7.024;2022-09-09T03:18:29;16.13;83.02
72128;DHT22;60000;51.030;7.024;2022-09-09T03:20:54;16.15;82.99
72128;DHT22;60000;51.030;7.024;2022-09-09T03:23:19;16.13;83.00
72128;DHT22;60000;51.030;7.024;2022-09-09T03:25:47;16.12;83.12
72128;DHT22;60000;51.030;7.024;2022-09-09T03:28:13;16.13;83.13
72128;DHT22;60000;51.030;7.024;2022-09-09T03:30:39;16.09;83.19
72128;DHT22;60000;51.030;7.024;2022-09-09T03:33:04;16.12;83.22
72128;DHT22;60000;51.030;7.024;2022-09-09T03:35:29;16.11;83.27
72128;DHT22;60000;51.030;7.024;2022-09-09T03:37:55;16.11;83.32
72128;DHT22;60000;51.030;7.024;2022-09-09T03:40:20;16.13;83.42
72128;DHT22;60000;51.030;7.024;2022-09-09T03:42:46;16.12;83.41
72128;DHT22;60000;51.030;7.024;2022-09-09T03:45:11;16.13;83.43
72128;DHT22;60000;51.030;7.024;2022-09-09T03:47:37;16.13;83.46
72128;DHT22;60000;51.030;7.024;2022-09-09T03:50:04;16.13;83.28
72128;DHT22;60000;51.030;7.024;2022-09-09T03:52:31;16.13;83.33
72128;DHT22;60000;51.030;7.024;2022-09-09T03:54:56;16.15;83.25
72128;DHT22;60000;51.030;7.024;2022-09-09T03:57:21;16.15;83.16
72128;DHT22;60000;51.030;7.024;2022-09-09T03:59:47;16.19;83.07
72128;DHT22;60000;51.030;7.024;2022-09-09T04:02:12;16.18;83.02
72128;DHT22;60000;51.030;7.024;2022-09-09T04:04:38;16.21;82.96
72128;DHT22;60000;51.030;7.024;2022-09-09T04:07:03;16.19;82.89
72128;DHT22;60000;51.030;7.024;2022-09-09T04:09:32;16.21;82.83
72128;DHT22;60000;51.030;7.024;2022-09-09T04:11:57;16.25;82.78
72128;DHT22;60000;51.030;7.024;2022-09-09T04:14:22;16.25;82.69
72128;DHT22;60000;51.030;7.024;2022-09-09T04:16:48;16.23;82.65
72128;DHT22;60000;51.030;7.024;2022-09-09T04:19:13;16.26;82.62
72128;DHT22;60000;51.030;7.024;2022-09-09T04:21:42;16.28;82.56
72128;DHT22;60000;51.030;7.024;2022-09-09T04:24:08;16.23;82.57
72128;DHT22;60000;51.030;7.024;2022-09-09T04:26:34;16.25;82.56
72128;DHT22;60000;51.030;7.024;2022-09-09T04:29:02;16.28;82.52
72128;DHT22;60000;51.030;7.024;2022-09-09T04:31:28;16.25;82.45
72128;DHT22;60000;51.030;7.024;2022-09-09T04:33:54;16.26;82.34
72128;DHT22;60000;51.030;7.024;2022-09-09T04:36:19;16.26;82.23
72128;DHT22;60000;51.030;7.024;2022-09-09T04:38:45;16.25;82.15
72128;DHT22;60000;51.030;7.024;2022-09-09T04:41:11;16.29;82.11
72128;DHT22;60000;51.030;7.024;2022-09-09T04:43:37;16.29;82.08
72128;DHT22;60000;51.030;7.024;2022-09-09T04:46:03;16.29;82.07
72128;DHT22;60000;51.030;7.024;2022-09-09T04:48:29;16.30;82.06
72128;DHT22;60000;51.030;7.024;2022-09-09T04:53:25;16.32;81.77
72128;DHT22;60000;51.030;7.024;2022-09-09T04:56:12;16.34;81.74
72128;DHT22;60000;51.030;7.024;2022-09-09T04:58:37;16.34;81.52
72128;DHT22;60000;51.030;7.024;2022-09-09T05:01:04;16.38;81.43
72128;DHT22;60000;51.030;7.024;2022-09-09T05:03:29;16.36;81.42
72128;DHT22;60000;51.030;7.024;2022-09-09T05:06:23;16.40;81.33
72128;DHT22;60000;51.030;7.024;2022-09-09T05:08:47;16.40;81.36
72128;DHT22;60000;51.030;7.024;2022-09-09T05:11:25;16.40;81.28
72128;DHT22;60000;51.030;7.024;2022-09-09T05:13:53;16.42;81.30
72128;DHT22;60000;51.030;7.024;2022-09-09T05:16:19;16.43;81.10
72128;DHT22;60000;51.030;7.024;2022-09-09T05:18:45;16.46;81.03
72128;DHT22;60000;51.030;7.024;2022-09-09T05:21:15;16.48;81.06
72128;DHT22;60000;51.030;7.024;2022-09-09T05:23:40;16.48;81.12
72128;DHT22;60000;51.030;7.024;2022-09-09T05:26:09;16.48;81.03
72128;DHT22;60000;51.030;7.024;2022-09-09T05:28:36;16.46;80.94
72128;DHT22;60000;51.030;7.024;2022-09-09T05:31:04;16.45;80.95
72128;DHT22;60000;51.030;7.024;2022-09-09T05:33:31;16.49;81.23
72128;DHT22;60000;51.030;7.024;2022-09-09T05:36:04;16.48;81.50
72128;DHT22;60000;51.030;7.024;2022-09-09T05:38:31;16.46;81.80
72128;DHT22;60000;51.030;7.024;2022-09-09T05:40:57;16.43;82.07
72128;DHT22;60000;51.030;7.024;2022-09-09T05:43:23;16.40;82.28
72128;DHT22;60000;51.030;7.024;2022-09-09T05:46:04;16.42;82.62
72128;DHT22;60000;51.030;7.024;2022-09-09T05:48:32;16.42;82.87
72128;DHT22;60000;51.030;7.024;2022-09-09T05:50:58;16.38;83.14
72128;DHT22;60000;51.030;7.024;2022-09-09T05:53:25;16.36;83.40
72128;DHT22;60000;51.030;7.024;2022-09-09T05:55:58;16.36;83.71
72128;DHT22;60000;51.030;7.024;2022-09-09T05:58:23;16.30;84.10
72128;DHT22;60000;51.030;7.024;2022-09-09T06:00:49;16.29;84.11
72128;DHT22;60000;51.030;7.024;2022-09-09T06:03:15;16.29;84.24
72128;DHT22;60000;51.030;7.024;2022-09-09T06:05:42;16.28;84.47
72128;DHT22;60000;51.030;7.024;2022-09-09T06:08:07;16.28;84.52
72128;DHT22;60000;51.030;7.024;2022-09-09T06:10:32;16.28;84.48
72128;DHT22;60000;51.030;7.024;2022-09-09T06:12:59;16.32;84.40
72128;DHT22;60000;51.030;7.024;2022-09-09T06:15:24;16.34;84.33
72128;DHT22;60000;51.030;7.024;2022-09-09T06:17:54;16.34;83.95
72128;DHT22;60000;51.030;7.024;2022-09-09T06:20:21;16.39;84.05
72128;DHT22;60000;51.030;7.024;2022-09-09T06:22:47;16.40;83.79
72128;DHT22;60000;51.030;7.024;2022-09-09T06:25:14;16.46;83.54
72128;DHT22;60000;51.030;7.024;2022-09-09T06:27:39;16.52;83.20
72128;DHT22;60000;51.030;7.024;2022-09-09T06:30:06;16.55;82.99
72128;DHT22;60000;51.030;7.024;2022-09-09T06:32:32;16.57;83.03
72128;DHT22;60000;51.030;7.024;2022-09-09T06:34:59;16.59;82.85
72128;DHT22;60000;51.030;7.024;2022-09-09T06:37:26;16.63;82.91
72128;DHT22;60000;51.030;7.024;2022-09-09T06:39:52;16.64;82.99
72128;DHT22;60000;51.030;7.024;2022-09-09T06:42:19;16.70;82.79
72128;DHT22;60000;51.030;7.024;2022-09-09T06:44:45;16.73;82.85
72128;DHT22;60000;51.030;7.024;2022-09-09T06:47:10;16.77;82.41
72128;DHT22;60000;51.030;7.024;2022-09-09T06:49:36;16.80;81.83
72128;DHT22;60000;51.030;7.024;2022-09-09T06:52:01;16.91;81.62
72128;DHT22;60000;51.030;7.024;2022-09-09T06:54:26;16.97;81.01
72128;DHT22;60000;51.030;7.024;2022-09-09T06:56:52;17.19;80.74
72128;DHT22;60000;51.030;7.024;2022-09-09T06:59:17;17.45;80.46
72128;DHT22;60000;51.030;7.024;2022-09-09T07:01:43;17.82;78.61
72128;DHT22;60000;51.030;7.024;2022-09-09T07:04:16;18.16;77.30
72128;DHT22;60000;51.030;7.024;2022-09-09T07:06:43;18.54;76.17
72128;DHT22;60000;51.030;7.024;2022-09-09T07:09:11;18.82;74.55
72128;DHT22;60000;51.030;7.024;2022-09-09T07:11:40;19.00;71.82
72128;DHT22;60000;51.030;7.024;2022-09-09T07:14:07;19.22;70.87
72128;DHT22;60000;51.030;7.024;2022-09-09T07:16:33;19.58;69.67
72128;DHT22;60000;51.030;7.024;2022-09-09T07:19:02;19.71;67.42
72128;DHT22;60000;51.030;7.024;2022-09-09T07:21:29;19.95;67.89
72128;DHT22;60000;51.030;7.024;2022-09-09T07:23:55;20.02;66.72
72128;DHT22;60000;51.030;7.024;2022-09-09T07:26:26;19.96;65.93
72128;DHT22;60000;51.030;7.024;2022-09-09T07:28:51;19.96;67.28
72128;DHT22;60000;51.030;7.024;2022-09-09T07:31:23;19.95;67.05
72128;DHT22;60000;51.030;7.024;2022-09-09T07:33:50;19.86;66.03
72128;DHT22;60000;51.030;7.024;2022-09-09T07:36:20;19.73;66.18
72128;DHT22;60000;51.030;7.024;2022-09-09T07:38:51;19.61;65.76
72128;DHT22;60000;51.030;7.024;2022-09-09T07:41:31;19.54;66.23
72128;DHT22;60000;51.030;7.024;2022-09-09T07:43:59;19.63;66.69
72128;DHT22;60000;51.030;7.024;2022-09-09T07:46:26;19.79;66.60
72128;DHT22;60000;51.030;7.024;2022-09-09T07:48:55;19.99;66.41
72128;DHT22;60000;51.030;7.024;2022-09-09T07:51:24;20.18;66.32
72128;DHT22;60000;51.030;7.024;2022-09-09T07:53:55;20.26;63.03
72128;DHT22;60000;51.030;7.024;2022-09-09T07:56:23;20.40;62.48
72128;DHT22;60000;51.030;7.024;2022-09-09T07:58:50;20.37;61.88
72128;DHT22;60000;51.030;7.024;2022-09-09T08:03:44;20.45;61.63
72128;DHT22;60000;51.030;7.024;2022-09-09T08:06:10;20.43;61.60
72128;DHT22;60000;51.030;7.024;2022-09-09T08:08:36;20.30;61.51
72128;DHT22;60000;51.030;7.024;2022-09-09T08:11:14;20.21;61.03
72128;DHT22;60000;51.030;7.024;2022-09-09T08:13:40;20.06;61.21
72128;DHT22;60000;51.030;7.024;2022-09-09T08:16:07;19.89;61.80
72128;DHT22;60000;51.030;7.024;2022-09-09T08:18:33;19.82;61.37
72128;DHT22;60000;51.030;7.024;2022-09-09T08:21:23;19.71;60.98
72128;DHT22;60000;51.030;7.024;2022-09-09T08:23:51;19.78;61.51
72128;DHT22;60000;51.030;7.024;2022-09-09T08:26:19;19.75;60.56
72128;DHT22;60000;51.030;7.024;2022-09-09T08:28:52;19.74;60.46
72128;DHT22;60000;51.030;7.024;2022-09-09T08:31:20;19.82;61.14
72128;DHT22;60000;51.030;7.024;2022-09-09T08:33:46;19.88;60.45
72128;DHT22;60000;51.030;7.024;2022-09-09T08:36:14;19.86;60.08
72128;DHT22;60000;51.030;7.024;2022-09-09T08:38:41;19.96;60.96
72128;DHT22;60000;51.030;7.024;2022-09-09T08:41:32;20.05;60.42
72128;DHT22;60000;51.030;7.024;2022-09-09T08:47:12;20.15;60.23
72128;DHT22;60000;51.030;7.024;2022-09-09T08:52:31;20.23;58.53
72128;DHT22;60000;51.030;7.024;2022-09-09T08:57:40;20.23;56.87
72128;DHT22;60000;51.030;7.024;2022-09-09T09:00:09;20.25;57.59
72128;DHT22;60000;51.030;7.024;2022-09-09T09:02:54;20.21;57.34
72128;DHT22;60000;51.030;7.024;2022-09-09T09:05:35;20.12;56.70
72128;DHT22;60000;51.030;7.024;2022-09-09T09:08:12;20.11;56.88
72128;DHT22;60000;51.030;7.024;2022-09-09T09:10:48;20.21;56.72
72128;DHT22;60000;51.030;7.024;2022-09-09T09:15:50;20.35;56.82
72128;DHT22;60000;51.030;7.024;2022-09-09T09:18:17;20.72;55.74
72128;DHT22;60000;51.030;7.024;2022-09-09T09:23:23;21.03;54.37
72128;DHT22;60000;51.030;7.024;2022-09-09T09:25:50;21.05;52.21
72128;DHT22;60000;51.030;7.024;2022-09-09T09:28:21;21.05;53.25
72128;DHT22;60000;51.030;7.024;2022-09-09T09:31:06;21.04;53.00
72128;DHT22;60000;51.030;7.024;2022-09-09T09:33:46;21.03;53.69
72128;DHT22;60000;51.030;7.024;2022-09-09T09:36:13;21.03;53.82
72128;DHT22;60000;51.030;7.024;2022-09-09T09:38:52;20.98;53.46
72128;DHT22;60000;51.030;7.024;2022-09-09T09:41:31;20.88;54.14
72128;DHT22;60000;51.030;7.024;2022-09-09T09:43:58;20.79;54.28
72128;DHT22;60000;51.030;7.024;2022-09-09T09:46:24;20.66;54.49
72128;DHT22;60000;51.030;7.024;2022-09-09T09:49:03;20.53;54.48
72128;DHT22;60000;51.030;7.024;2022-09-09T09:51:31;20.43;55.02
72128;DHT22;60000;51.030;7.024;2022-09-09T09:54:30;20.40;55.25
72128;DHT22;60000;51.030;7.024;2022-09-09T09:56:56;20.40;54.91
72128;DHT22;60000;51.030;7.024;2022-09-09T09:59:35;20.42;55.02
72128;DHT22;60000;51.030;7.024;2022-09-09T10:04:38;20.50;55.41
72128;DHT22;60000;51.030;7.024;2022-09-09T10:07:17;20.64;55.47
72128;DHT22;60000;51.030;7.024;2022-09-09T10:09:42;20.83;55.79
72128;DHT22;60000;51.030;7.024;2022-09-09T10:15:31;21.18;54.62
72128;DHT22;60000;51.030;7.024;2022-09-09T10:21:20;21.38;54.82
72128;DHT22;60000;51.030;7.024;2022-09-09T10:29:39;21.22;53.43
72128;DHT22;60000;51.030;7.024;2022-09-09T10:40:38;21.15;54.31
72128;DHT22;60000;51.030;7.024;2022-09-09T10:43:16;21.12;54.56
72128;DHT22;60000;51.030;7.024;2022-09-09T10:46:09;21.11;54.61
72128;DHT22;60000;51.030;7.024;2022-09-09T10:56:31;21.03;53.86
72128;DHT22;60000;51.030;7.024;2022-09-09T10:59:02;21.08;53.35
72128;DHT22;60000;51.030;7.024;2022-09-09T11:01:43;21.20;52.84
72128;DHT22;60000;51.030;7.024;2022-09-09T11:04:17;21.37;53.30
72128;DHT22;60000;51.030;7.024;2022-09-09T11:06:48;21.90;52.25
72128;DHT22;60000;51.030;7.024;2022-09-09T11:09:23;22.23;51.54
72128;DHT22;60000;51.030;7.024;2022-09-09T11:11:57;22.33;51.14
72128;DHT22;60000;51.030;7.024;2022-09-09T11:14:30;22.30;50.79
72128;DHT22;60000;51.030;7.024;2022-09-09T11:17:04;22.44;50.42
72128;DHT22;60000;51.030;7.024;2022-09-09T11:22:05;22.37;50.72
72128;DHT22;60000;51.030;7.024;2022-09-09T11:24:47;22.47;50.30
72128;DHT22;60000;51.030;7.024;2022-09-09T11:38:45;22.09;50.60
72128;DHT22;60000;51.030;7.024;2022-09-09T11:41:13;21.93;50.22
72128;DHT22;60000;51.030;7.024;2022-09-09T11:43:44;21.82;50.86
72128;DHT22;60000;51.030;7.024;2022-09-09T11:46:12;21.72;50.76
72128;DHT22;60000;51.030;7.024;2022-09-09T11:48:56;21.71;51.73
72128;DHT22;60000;51.030;7.024;2022-09-09T11:53:55;21.67;51.43
72128;DHT22;60000;51.030;7.024;2022-09-09T11:56:26;21.61;51.11
72128;DHT22;60000;51.030;7.024;2022-09-09T11:59:04;21.63;51.57
72128;DHT22;60000;51.030;7.024;2022-09-09T12:09:50;21.31;51.93
72128;DHT22;60000;51.030;7.024;2022-09-09T12:12:37;21.21;51.00
72128;DHT22;60000;51.030;7.024;2022-09-09T12:20:18;21.04;51.20
72128;DHT22;60000;51.030;7.024;2022-09-09T12:28:32;20.87;51.82
72128;DHT22;60000;51.030;7.024;2022-09-09T12:33:49;20.83;52.29
72128;DHT22;60000;51.030;7.024;2022-09-09T12:36:33;20.97;51.82
72128;DHT22;60000;51.030;7.024;2022-09-09T12:39:10;21.07;51.91
72128;DHT22;60000;51.030;7.024;2022-09-09T12:41:36;21.11;51.27
72128;DHT22;60000;51.030;7.024;2022-09-09T12:44:09;21.17;51.15
72128;DHT22;60000;51.030;7.024;2022-09-09T12:46:41;21.12;50.99
72128;DHT22;60000;51.030;7.024;2022-09-09T12:49:35;21.05;51.25
72128;DHT22;60000;51.030;7.024;2022-09-09T12:52:27;21.03;51.85
72128;DHT22;60000;51.030;7.024;2022-09-09T12:54:55;20.95;51.48
72128;DHT22;60000;51.030;7.024;2022-09-09T12:57:23;20.95;51.95
72128;DHT22;60000;51.030;7.024;2022-09-09T12:59:51;20.81;52.38
72128;DHT22;60000;51.030;7.024;2022-09-09T13:04:41;20.69;53.55
72128;DHT22;60000;51.030;7.024;2022-09-09T13:07:07;20.57;57.11
72128;DHT22;60000;51.030;7.024;2022-09-09T13:09:35;20.49;59.42
72128;DHT22;60000;51.030;7.024;2022-09-09T13:12:00;20.49;61.05
72128;DHT22;60000;51.030;7.024;2022-09-09T13:14:33;20.56;60.27
72128;DHT22;60000;51.030;7.024;2022-09-09T13:17:02;20.60;59.46
72128;DHT22;60000;51.030;7.024;2022-09-09T13:19:37;20.74;58.68
72128;DHT22;60000;51.030;7.024;2022-09-09T13:22:14;20.85;58.31
72128;DHT22;60000;51.030;7.024;2022-09-09T13:24:44;20.91;58.24
72128;DHT22;60000;51.030;7.024;2022-09-09T13:27:31;20.85;58.12
72128;DHT22;60000;51.030;7.024;2022-09-09T13:29:56;20.77;58.56
72128;DHT22;60000;51.030;7.024;2022-09-09T13:32:23;20.70;59.62
72128;DHT22;60000;51.030;7.024;2022-09-09T13:35:00;20.64;60.18
72128;DHT22;60000;51.030;7.024;2022-09-09T13:37:36;20.66;61.14
72128;DHT22;60000;51.030;7.024;2022-09-09T13:40:05;20.67;60.91
72128;DHT22;60000;51.030;7.024;2022-09-09T13:42:33;20.66;61.39
72128;DHT22;60000;51.030;7.024;2022-09-09T13:45:00;20.57;61.53
72128;DHT22;60000;51.030;7.024;2022-09-09T13:47:32;20.53;62.26
72128;DHT22;60000;51.030;7.024;2022-09-09T13:49:58;20.40;64.28
72128;DHT22;60000;51.030;7.024;2022-09-09T13:52:23;20.47;64.84
72128;DHT22;60000;51.030;7.024;2022-09-09T13:54:50;20.45;64.30
72128;DHT22;60000;51.030;7.024;2022-09-09T13:57:21;20.43;64.35
72128;DHT22;60000;51.030;7.024;2022-09-09T13:59:47;20.46;65.11
72128;DHT22;60000;51.030;7.024;2022-09-09T14:02:13;20.52;64.66
72128;DHT22;60000;51.030;7.024;2022-09-09T14:04:38;20.79;65.50
72128;DHT22;60000;51.030;7.024;2022-09-09T14:07:10;21.00;64.96
72128;DHT22;60000;51.030;7.024;2022-09-09T14:09:36;21.05;63.58
72128;DHT22;60000;51.030;7.024;2022-09-09T14:12:01;21.12;63.44
72128;DHT22;60000;51.030;7.024;2022-09-09T14:14:27;21.14;62.62
72128;DHT22;60000;51.030;7.024;2022-09-09T14:16:52;21.10;63.26
72128;DHT22;60000;51.030;7.024;2022-09-09T14:19:18;21.01;63.00
72128;DHT22;60000;51.030;7.024;2022-09-09T14:21:43;20.90;59.01
72128;DHT22;60000;51.030;7.024;2022-09-09T14:24:08;20.72;59.54
72128;DHT22;60000;51.030;7.024;2022-09-09T14:26:34;20.56;60.95
72128;DHT22;60000;51.030;7.024;2022-09-09T14:28:59;20.40;62.60
72128;DHT22;60000;51.030;7.024;2022-09-09T14:31:26;20.14;65.09
72128;DHT22;60000;51.030;7.024;2022-09-09T14:33:51;19.86;67.98
72128;DHT22;60000;51.030;7.024;2022-09-09T14:36:17;19.60;69.41
72128;DHT22;60000;51.030;7.024;2022-09-09T14:38:43;19.41;71.62
72128;DHT22;60000;51.030;7.024;2022-09-09T14:41:13;19.20;72.89
72128;DHT22;60000;51.030;7.024;2022-09-09T14:43:41;18.95;73.77
72128;DHT22;60000;51.030;7.024;2022-09-09T14:46:08;18.66;74.61
72128;DHT22;60000;51.030;7.024;2022-09-09T14:48:34;18.43;75.61
72128;DHT22;60000;51.030;7.024;2022-09-09T14:51:11;18.20;76.20
72128;DHT22;60000;51.030;7.024;2022-09-09T14:53:39;18.04;76.74
72128;DHT22;60000;51.030;7.024;2022-09-09T14:56:10;17.93;76.95
72128;DHT22;60000;51.030;7.024;2022-09-09T14:58:37;17.82;77.56
72128;DHT22;60000;51.030;7.024;2022-09-09T15:01:08;17.79;78.14
72128;DHT22;60000;51.030;7.024;2022-09-09T15:03:36;17.82;78.75
72128;DHT22;60000;51.030;7.024;2022-09-09T15:06:12;17.90;79.33
72128;DHT22;60000;51.030;7.024;2022-09-09T15:08:39;18.06;79.78
72128;DHT22;60000;51.030;7.024;2022-09-09T15:11:06;18.27;80.97
72128;DHT22;60000;51.030;7.024;2022-09-09T15:13:35;18.38;79.41
72128;DHT22;60000;51.030;7.024;2022-09-09T15:18:31;18.47;78.82
72128;DHT22;60000;51.030;7.024;2022-09-09T15:20:58;18.61;79.78
72128;DHT22;60000;51.030;7.024;2022-09-09T15:23:24;18.76;80.18
72128;DHT22;60000;51.030;7.024;2022-09-09T15:25:53;18.88;79.16
72128;DHT22;60000;51.030;7.024;2022-09-09T15:28:20;18.95;78.20
72128;DHT22;60000;51.030;7.024;2022-09-09T15:30:53;18.96;77.52
72128;DHT22;60000;51.030;7.024;2022-09-09T15:33:19;18.99;77.98
72128;DHT22;60000;51.030;7.024;2022-09-09T15:35:45;19.03;77.63
72128;DHT22;60000;51.030;7.024;2022-09-09T15:38:11;19.06;77.72
72128;DHT22;60000;51.030;7.024;2022-09-09T15:40:38;19.05;77.72
72128;DHT22;60000;51.030;7.024;2022-09-09T15:43:05;19.05;76.90
72128;DHT22;60000;51.030;7.024;2022-09-09T15:45:31;19.07;77.05
72128;DHT22;60000;51.030;7.024;2022-09-09T15:47:59;19.16;76.90
72128;DHT22;60000;51.030;7.024;2022-09-09T15:50:24;19.16;76.02
72128;DHT22;60000;51.030;7.024;2022-09-09T15:52:49;19.16;76.30
72128;DHT22;60000;51.030;7.024;2022-09-09T15:55:15;19.23;76.58
72128;DHT22;60000;51.030;7.024;2022-09-09T15:57:40;19.22;76.32
72128;DHT22;60000;51.030;7.024;2022-09-09T16:00:06;19.23;76.46
72128;DHT22;60000;51.030;7.024;2022-09-09T16:02:32;19.16;75.30
72128;DHT22;60000;51.030;7.024;2022-09-09T16:04:58;19.06;74.84
72128;DHT22;60000;51.030;7.024;2022-09-09T16:07:23;19.09;75.16
72128;DHT22;60000;51.030;7.024;2022-09-09T16:09:48;19.19;75.90
72128;DHT22;60000;51.030;7.024;2022-09-09T16:12:15;19.20;75.25
72128;DHT22;60000;51.030;7.024;2022-09-09T16:14:41;19.16;75.17
72128;DHT22;60000;51.030;7.024;2022-09-09T16:17:06;19.06;74.01
72128;DHT22;60000;51.030;7.024;2022-09-09T16:19:32;18.98;74.12
72128;DHT22;60000;51.030;7.024;2022-09-09T16:21:58;18.88;73.88
72128;DHT22;60000;51.030;7.024;2022-09-09T16:24:23;18.85;74.27
72128;DHT22;60000;51.030;7.024;2022-09-09T16:26:51;18.72;73.87
72128;DHT22;60000;51.030;7.024;2022-09-09T16:29:18;18.65;74.49
72128;DHT22;60000;51.030;7.024;2022-09-09T16:31:45;18.55;74.32
72128;DHT22;60000;51.030;7.024;2022-09-09T16:34:12;18.49;74.34
72128;DHT22;60000;51.030;7.024;2022-09-09T16:36:39;18.41;74.54
72128;DHT22;60000;51.030;7.024;2022-09-09T16:39:07;18.37;74.38
72128;DHT22;60000;51.030;7.024;2022-09-09T16:41:34;18.33;74.82
72128;DHT22;60000;51.030;7.024;2022-09-09T16:44:04;18.34;75.29
72128;DHT22;60000;51.030;7.024;2022-09-09T16:46:33;18.33;75.51
72128;DHT22;60000;51.030;7.024;2022-09-09T16:49:00;18.33;74.83
72128;DHT22;60000;51.030;7.024;2022-09-09T16:51:31;18.30;75.46
72128;DHT22;60000;51.030;7.024;2022-09-09T16:53:59;18.28;75.07
72128;DHT22;60000;51.030;7.024;2022-09-09T16:56:27;18.23;75.35
72128;DHT22;60000;51.030;7.024;2022-09-09T16:58:55;18.18;75.86
72128;DHT22;60000;51.030;7.024;2022-09-09T17:01:24;18.10;76.00
72128;DHT22;60000;51.030;7.024;2022-09-09T17:03:54;18.11;76.29
72128;DHT22;60000;51.030;7.024;2022-09-09T17:06:21;18.04;76.57
72128;DHT22;60000;51.030;7.024;2022-09-09T17:08:46;18.01;76.85
72128;DHT22;60000;51.030;7.024;2022-09-09T17:11:17;17.99;77.49
72128;DHT22;60000;51.030;7.024;2022-09-09T17:13:46;17.94;77.64
72128;DHT22;60000;51.030;7.024;2022-09-09T17:16:13;17.94;77.67
72128;DHT22;60000;51.030;7.024;2022-09-09T17:18:39;17.90;77.98
72128;DHT22;60000;51.030;7.024;2022-09-09T17:21:11;17.85;78.01
72128;DHT22;60000;51.030;7.024;2022-09-09T17:23:37;17.79;78.34
72128;DHT22;60000;51.030;7.024;2022-09-09T17:26:04;17.76;78.40
72128;DHT22;60000;51.030;7.024;2022-09-09T17:28:30;17.72;78.31
72128;DHT22;60000;51.030;7.024;2022-09-09T17:30:57;17.66;78.50
72128;DHT22;60000;51.030;7.024;2022-09-09T17:33:27;17.59;78.46
72128;DHT22;60000;51.030;7.024;2022-09-09T17:35:53;17.56;78.65
72128;DHT22;60000;51.030;7.024;2022-09-09T17:38:19;17.50;78.98
72128;DHT22;60000;51.030;7.024;2022-09-09T17:40:44;17.50;79.07
72128;DHT22;60000;51.030;7.024;2022-09-09T17:43:10;17.48;79.23
72128;DHT22;60000;51.030;7.024;2022-09-09T17:45:35;17.48;79.29
72128;DHT22;60000;51.030;7.024;2022-09-09T17:48:01;17.46;79.59
72128;DHT22;60000;51.030;7.024;2022-09-09T17:50:27;17.43;79.86
72128;DHT22;60000;51.030;7.024;2022-09-09T17:52:53;17.39;79.99
72128;DHT22;60000;51.030;7.024;2022-09-09T17:55:18;17.38;80.06
72128;DHT22;60000;51.030;7.024;2022-09-09T17:57:43;17.38;79.96
72128;DHT22;60000;51.030;7.024;2022-09-09T18:00:09;17.38;79.97
72128;DHT22;60000;51.030;7.024;2022-09-09T18:02:35;17.35;80.07
72128;DHT22;60000;51.030;7.024;2022-09-09T18:05:02;17.35;79.95